createdAt,value
2019-04-22T00:00:34.577Z,101311.58
2019-04-22T00:03:05.237Z,101311.31
2019-04-22T00:05:56.327Z,101305.24
2019-04-22T00:08:29.542Z,101301.30
2019-04-22T00:11:05.013Z,101296.94
2019-04-22T00:13:40.978Z,101303.50
2019-04-22T00:15:59.339Z,101299.19
2019-04-22T00:18:54.936Z,101305.38
2019-04-22T00:21:14.041Z,101304.06
2019-04-22T00:23:39.517Z,101305.43
2019-04-22T00:26:16.549Z,101306.41
2019-04-22T00:28:52.217Z,101304.67
2019-04-22T00:31:20.874Z,101306.42
2019-04-22T00:33:53.163Z,101306.91
2019-04-22T00:36:28.914Z,101307.36
2019-04-22T00:38:59.218Z,101316.16
2019-04-22T00:41:35.939Z,101314.90
2019-04-22T00:44:02.922Z,101321.91
2019-04-22T00:46:38.030Z,101313.19
2019-04-22T00:49:52.721Z,101316.66
2019-04-22T00:51:44.326Z,101315.00
2019-04-22T00:54:05.939Z,101318.94
2019-04-22T00:56:40.609Z,101319.42
2019-04-22T00:59:14.387Z,101319.91
2019-04-22T01:01:47.099Z,101322.57
2019-04-22T01:04:21.476Z,101318.67
2019-04-22T01:06:53.656Z,101314.70
2019-04-22T01:09:16.879Z,101316.09
2019-04-22T01:11:56.356Z,101316.16
2019-04-22T01:14:26.431Z,101317.07
2019-04-22T01:16:56.424Z,101317.14
2019-04-22T01:19:32.341Z,101316.27
2019-04-22T01:21:58.198Z,101323.33
2019-04-22T01:24:32.418Z,101323.76
2019-04-22T01:26:57.390Z,101324.25
2019-04-22T01:29:30.824Z,101327.33
2019-04-22T01:31:51.002Z,101325.58
2019-04-22T01:34:37.526Z,101327.38
2019-04-22T01:37:14.087Z,101325.19
2019-04-22T01:39:49.875Z,101328.70
2019-04-22T01:42:29.874Z,101328.23
2019-04-22T01:44:50.577Z,101331.76
2019-04-22T01:47:33.130Z,101337.03
2019-04-22T01:50:04.716Z,101337.88
2019-04-22T01:52:31.424Z,101330.46
2019-04-22T01:55:04.520Z,101328.28
2019-04-22T01:57:28.857Z,101333.53
2019-04-22T01:59:56.137Z,101329.19
2019-04-22T02:02:39.921Z,101332.27
2019-04-22T02:05:15.788Z,101339.27
2019-04-22T02:07:42.495Z,101337.95
2019-04-22T02:10:14.068Z,101344.08
2019-04-22T02:12:48.496Z,101337.53
2019-04-22T02:15:17.008Z,101334.91
2019-04-22T02:18:11.603Z,101332.30
2019-04-22T02:20:23.169Z,101328.35
2019-04-22T02:26:32.644Z,101327.93
2019-04-22T02:49:05.351Z,101324.41
2019-04-22T02:51:22.354Z,101323.11
2019-04-22T03:06:35.945Z,101324.36
2019-04-22T03:09:12.699Z,101326.11
2019-04-22T03:14:13.157Z,101326.95
2019-04-22T03:16:54.597Z,101324.78
2019-04-22T03:19:31.370Z,101319.95
2019-04-22T03:22:00.554Z,101324.31
2019-04-22T03:26:48.925Z,101330.39
2019-04-22T03:29:32.987Z,101336.52
2019-04-22T03:42:07.560Z,101334.98
2019-04-22T03:44:42.752Z,101342.41
2019-04-22T03:47:27.865Z,101340.62
2019-04-22T03:49:48.094Z,101344.47
2019-04-22T03:54:54.532Z,101344.49
2019-04-22T03:59:55.002Z,101334.59
2019-04-22T04:05:05.229Z,101324.38
2019-04-22T04:07:38.355Z,101328.82
2019-04-22T04:10:03.214Z,101332.70
2019-04-22T04:15:09.373Z,101321.70
2019-04-22T04:17:29.332Z,101322.97
2019-04-22T04:22:52.219Z,101327.23
2019-04-22T04:25:25.471Z,101323.26
2019-04-22T04:27:54.185Z,101325.42
2019-04-22T04:30:14.475Z,101319.34
2019-04-22T04:35:32.255Z,101317.66
2019-04-22T04:37:52.375Z,101319.45
2019-04-22T04:40:21.430Z,101322.55
2019-04-22T04:50:22.577Z,101339.23
2019-04-22T04:53:06.369Z,101340.56
2019-04-22T05:03:02.517Z,101333.91
2019-04-22T05:15:43.434Z,101334.05
2019-04-22T05:20:53.225Z,101331.42
2019-04-22T05:23:17.920Z,101330.56
2019-04-22T05:25:40.660Z,101334.47
2019-04-22T05:28:16.462Z,101329.15
2019-04-22T05:30:42.386Z,101335.62
2019-04-22T05:33:14.215Z,101340.90
2019-04-22T05:35:46.353Z,101334.80
2019-04-22T05:38:30.513Z,101342.61
2019-04-22T05:40:49.706Z,101342.64
2019-04-22T05:43:21.303Z,101349.59
2019-04-22T05:45:56.299Z,101348.28
2019-04-22T05:48:33.067Z,101348.14
2019-04-22T05:50:57.290Z,101346.69
2019-04-22T05:53:25.971Z,101343.72
2019-04-22T05:56:10.110Z,101352.48
2019-04-22T05:58:41.098Z,101354.12
2019-04-22T06:03:47.894Z,101361.84
2019-04-22T06:06:16.779Z,101357.42
2019-04-22T06:08:48.685Z,101355.48
2019-04-22T06:13:46.888Z,101357.45
2019-04-22T06:16:26.318Z,101350.45
2019-04-22T06:18:58.323Z,101355.59
2019-04-22T06:21:35.645Z,101352.83
2019-04-22T06:24:04.979Z,101350.00
2019-04-22T06:26:48.914Z,101348.22
2019-04-22T06:29:09.213Z,101350.42
2019-04-22T06:31:37.313Z,101353.10
2019-04-22T06:34:10.523Z,101357.45
2019-04-22T06:36:45.177Z,101356.80
2019-04-22T06:39:17.357Z,101363.55
2019-04-22T06:44:21.520Z,101368.58
2019-04-22T06:46:47.720Z,101367.42
2019-04-22T06:49:27.953Z,101371.11
2019-04-22T06:51:54.039Z,101370.33
2019-04-22T06:54:22.076Z,101365.23
2019-04-22T06:56:54.662Z,101370.69
2019-04-22T06:59:26.594Z,101361.00
2019-04-22T07:04:28.206Z,101365.06
2019-04-22T07:07:02.199Z,101360.91
2019-04-22T07:12:10.048Z,101362.14
2019-04-22T07:14:35.120Z,101358.77
2019-04-22T07:17:07.083Z,101357.09
2019-04-22T07:22:19.838Z,101364.77
2019-04-22T07:24:47.454Z,101355.64
2019-04-22T07:27:18.809Z,101368.42
2019-04-22T07:29:57.813Z,101375.61
2019-04-22T07:32:29.885Z,101378.21
2019-04-22T07:34:56.933Z,101373.78
2019-04-22T07:37:31.666Z,101382.83
2019-04-22T07:39:50.213Z,101382.82
2019-04-22T07:44:55.157Z,101375.38
2019-04-22T07:47:31.153Z,101379.70
2019-04-22T07:50:05.458Z,101382.13
2019-04-22T07:52:33.454Z,101377.23
2019-04-22T07:55:02.618Z,101377.14
2019-04-22T08:00:10.911Z,101376.70
2019-04-22T08:02:44.146Z,101368.84
2019-04-22T08:05:12.540Z,101371.75
2019-04-22T08:07:46.453Z,101376.09
2019-04-22T08:10:23.810Z,101383.03
2019-04-22T08:12:55.447Z,101382.83
2019-04-22T08:15:19.719Z,101379.91
2019-04-22T08:20:22.657Z,101381.77
2019-04-22T08:22:57.639Z,101390.75
2019-04-22T08:25:24.765Z,101395.70
2019-04-22T08:27:59.843Z,101391.34
2019-04-22T08:30:36.949Z,101384.81
2019-04-22T08:33:01.018Z,101391.20
2019-04-22T08:38:09.627Z,101389.82
2019-04-22T08:40:42.875Z,101392.13
2019-04-22T08:45:57.004Z,101400.02
2019-04-22T08:48:20.593Z,101403.63
2019-04-22T08:50:44.262Z,101405.28
2019-04-22T08:53:40.170Z,101401.11
2019-04-22T08:55:58.192Z,101410.17
2019-04-22T08:58:27.647Z,101401.38
2019-04-22T09:00:56.995Z,101419.06
2019-04-22T09:03:24.348Z,101415.03
2019-04-22T09:08:48.763Z,101432.34
2019-04-22T09:11:03.633Z,101419.00
2019-04-22T09:13:38.461Z,101426.79
2019-04-22T09:16:19.435Z,101423.92
2019-04-22T09:21:26.074Z,101422.54
2019-04-22T09:24:00.745Z,101432.58
2019-04-22T09:26:30.696Z,101421.55
2019-04-22T09:29:05.123Z,101422.41
2019-04-22T09:31:37.185Z,101415.59
2019-04-22T09:34:12.257Z,101415.34
2019-04-22T09:36:42.062Z,101418.23
2019-04-22T09:39:11.596Z,101428.06
2019-04-22T09:41:48.309Z,101418.95
2019-04-22T09:44:13.401Z,101417.58
2019-04-22T09:46:47.950Z,101413.21
2019-04-22T09:49:18.925Z,101411.44
2019-04-22T09:51:52.127Z,101410.35
2019-04-22T09:54:29.666Z,101410.41
2019-04-22T09:59:32.669Z,101406.59
2019-04-22T10:02:13.293Z,101405.17
2019-04-22T10:04:32.973Z,101400.31
2019-04-22T10:06:59.590Z,101397.89
2019-04-22T10:12:02.165Z,101407.27
2019-04-22T10:14:39.567Z,101417.78
2019-04-22T10:17:11.275Z,101404.78
2019-04-22T10:19:41.004Z,101408.53
2019-04-22T10:22:19.952Z,101399.23
2019-04-22T10:24:44.635Z,101406.63
2019-04-22T10:27:24.010Z,101396.43
2019-04-22T10:29:54.245Z,101395.84
2019-04-22T10:32:27.047Z,101401.04
2019-04-22T10:34:47.331Z,101397.91
2019-04-22T10:37:16.979Z,101402.36
2019-04-22T10:39:55.103Z,101383.14
2019-04-22T10:42:18.980Z,101407.11
2019-04-22T10:44:50.352Z,101397.39
2019-04-22T10:47:22.168Z,101403.95
2019-04-22T10:49:52.461Z,101399.84
2019-04-22T10:52:23.674Z,101404.22
2019-04-22T10:54:53.912Z,101401.27
2019-04-22T10:57:23.875Z,101396.59
2019-04-22T10:59:56.681Z,101395.75
2019-04-22T11:02:27.836Z,101388.41
2019-04-22T11:04:58.618Z,101382.78
2019-04-22T11:07:37.315Z,101381.87
2019-04-22T11:10:20.449Z,101384.73
2019-04-22T11:12:37.990Z,101372.24
2019-04-22T11:15:09.805Z,101375.71
2019-04-22T11:17:42.206Z,101379.09
2019-04-22T11:20:13.441Z,101386.37
2019-04-22T11:22:44.651Z,101372.02
2019-04-22T11:25:16.037Z,101374.45
2019-04-22T11:27:47.213Z,101386.55
2019-04-22T11:30:21.898Z,101381.01
2019-04-22T11:32:50.690Z,101382.33
2019-04-22T11:35:21.891Z,101390.70
2019-04-22T11:37:52.753Z,101386.09
2019-04-22T11:40:31.638Z,101388.13
2019-04-22T11:42:56.405Z,101376.80
2019-04-22T11:45:27.093Z,101390.75
2019-04-22T11:48:13.407Z,101389.05
2019-04-22T12:16:00.943Z,101353.71
2019-04-22T12:18:47.252Z,101351.65
2019-04-22T12:21:46.819Z,101351.25
2019-04-22T12:24:42.532Z,101346.34
2019-04-22T12:27:28.014Z,101336.95
2019-04-22T12:30:30.424Z,101331.68
2019-04-22T12:33:02.332Z,101338.16
2019-04-22T12:35:42.115Z,101342.56
2019-04-22T12:38:17.035Z,101337.38
2019-04-22T12:40:55.273Z,101333.53
2019-04-22T12:43:28.248Z,101337.55
2019-04-22T12:46:03.116Z,101331.83
2019-04-22T12:48:41.262Z,101332.84
2019-04-22T12:54:31.352Z,101318.48
2019-04-22T12:57:03.960Z,101319.71
2019-04-22T12:59:47.933Z,101311.69
2019-04-22T13:02:38.846Z,101315.22
2019-04-22T13:08:11.672Z,101304.89
2019-04-22T13:10:55.525Z,101309.97
2019-04-22T13:13:25.127Z,101308.64
2019-04-22T13:19:23.492Z,101298.52
2019-04-22T13:22:36.972Z,101300.77
2019-04-22T13:24:45.748Z,101288.35
2019-04-22T13:27:40.155Z,101280.60
2019-04-22T13:29:57.220Z,101293.44
2019-04-22T13:32:44.557Z,101291.59
2019-04-22T13:35:19.533Z,101287.38
2019-04-22T13:37:57.228Z,101285.05
2019-04-22T13:40:34.912Z,101283.17
2019-04-22T13:43:09.043Z,101277.81
2019-04-22T13:45:40.859Z,101271.55
2019-04-22T13:48:33.277Z,101274.15
2019-04-22T13:51:36.452Z,101267.18
2019-04-22T13:54:14.047Z,101266.23
2019-04-22T13:56:19.075Z,101267.50
2019-04-22T13:58:46.090Z,101274.09
2019-04-22T14:01:20.592Z,101263.41
2019-04-22T14:04:00.438Z,101265.88
2019-04-22T14:06:36.591Z,101261.95
2019-04-22T14:09:09.631Z,101266.69
2019-04-22T14:11:50.712Z,101262.33
2019-04-22T14:14:22.185Z,101258.39
2019-04-22T14:16:58.771Z,101252.15
2019-04-22T14:19:32.251Z,101251.66
2019-04-22T14:22:07.681Z,101248.41
2019-04-22T14:24:43.091Z,101252.61
2019-04-22T14:27:27.737Z,101238.17
2019-04-22T14:29:53.503Z,101242.80
2019-04-22T14:32:27.473Z,101249.40
2019-04-22T14:36:07.510Z,101242.61
2019-04-22T14:38:08.414Z,101233.49
2019-04-22T14:40:56.182Z,101243.81
2019-04-22T14:44:00.557Z,101236.34
2019-04-22T14:46:26.460Z,101235.58
2019-04-22T14:48:57.589Z,101241.01
2019-04-22T14:51:26.109Z,101232.88
2019-04-22T14:53:56.649Z,101228.12
2019-04-22T14:56:12.835Z,101226.13
2019-04-22T14:58:46.839Z,101221.07
2019-04-22T15:01:21.124Z,101218.91
2019-04-22T15:03:52.646Z,101215.11
2019-04-22T15:06:24.437Z,101212.59
2019-04-22T15:09:01.681Z,101215.92
2019-04-22T15:11:48.305Z,101215.58
2019-04-22T15:14:07.516Z,101211.45
2019-04-22T15:16:42.583Z,101202.53
2019-04-22T15:19:25.489Z,101203.92
2019-04-22T15:22:00.767Z,101205.95
2019-04-22T15:24:50.242Z,101204.00
2019-04-22T15:27:53.323Z,101195.56
2019-04-22T15:30:29.933Z,101192.23
2019-04-22T15:33:03.395Z,101187.09
2019-04-22T15:35:33.680Z,101173.55
2019-04-22T15:38:11.317Z,101186.37
2019-04-22T15:40:54.448Z,101169.36
2019-04-22T15:43:27.917Z,101190.08
2019-04-22T15:46:14.173Z,101202.15
2019-04-22T15:49:25.355Z,101178.46
2019-04-22T15:51:36.773Z,101179.86
2019-04-22T15:54:09.720Z,101184.52
2019-04-22T15:56:56.916Z,101185.56
2019-04-22T15:59:45.077Z,101177.20
2019-04-22T16:02:04.478Z,101177.98
2019-04-22T16:04:41.161Z,101179.05
2019-04-22T16:07:20.453Z,101180.52
2019-04-22T16:09:53.863Z,101175.28
2019-04-22T16:12:41.468Z,101171.19
2019-04-22T16:15:13.457Z,101180.23
2019-04-22T16:17:46.789Z,101172.54
2019-04-22T16:20:19.584Z,101168.61
2019-04-22T16:23:07.934Z,101164.67
2019-04-22T16:26:01.041Z,101167.52
2019-04-22T16:28:37.744Z,101169.26
2019-04-22T16:31:13.361Z,101164.83
2019-04-22T16:33:47.871Z,101156.15
2019-04-22T16:36:20.780Z,101162.44
2019-04-22T16:39:04.680Z,101164.13
2019-04-22T16:41:39.309Z,101160.62
2019-04-22T16:44:14.504Z,101163.81
2019-04-22T16:46:45.827Z,101174.80
2019-04-22T16:49:17.209Z,101179.72
2019-04-22T16:51:51.927Z,101167.45
2019-04-22T16:54:24.240Z,101165.09
2019-04-22T16:56:57.287Z,101169.60
2019-04-22T16:59:38.387Z,101162.08
2019-04-22T17:02:24.628Z,101172.78
2019-04-22T17:04:57.809Z,101169.19
2019-04-22T17:07:29.869Z,101163.27
2019-04-22T17:10:01.923Z,101175.73
2019-04-22T17:12:45.869Z,101172.72
2019-04-22T17:15:12.190Z,101176.77
2019-04-22T17:17:43.374Z,101167.20
2019-04-22T17:20:15.489Z,101171.70
2019-04-22T17:22:47.474Z,101172.37
2019-04-22T17:25:18.402Z,101172.09
2019-04-22T17:27:53.033Z,101169.64
2019-04-22T17:30:26.367Z,101176.23
2019-04-22T17:32:58.830Z,101182.64
2019-04-22T17:35:31.546Z,101185.55
2019-04-22T17:38:12.756Z,101185.87
2019-04-22T17:40:52.248Z,101184.30
2019-04-22T17:46:17.704Z,101192.23
2019-04-22T17:51:46.066Z,101194.45
2019-04-22T17:54:26.923Z,101196.93
2019-04-22T17:56:54.329Z,101205.12
2019-04-22T17:59:35.960Z,101201.00
2019-04-22T18:02:11.518Z,101201.23
2019-04-22T18:04:39.989Z,101214.66
2019-04-22T18:07:42.960Z,101207.86
2019-04-22T18:10:27.549Z,101207.55
2019-04-22T18:15:35.247Z,101209.73
2019-04-22T18:18:06.479Z,101211.56
2019-04-22T18:20:56.358Z,101218.37
2019-04-22T18:23:20.872Z,101218.49
2019-04-22T18:26:05.327Z,101226.23
2019-04-22T18:28:52.591Z,101234.81
2019-04-22T18:31:17.479Z,101231.45
2019-04-22T18:33:51.591Z,101235.69
2019-04-22T18:36:30.638Z,101231.88
2019-04-22T18:39:16.283Z,101232.50
2019-04-22T18:41:39.549Z,101232.30
2019-04-22T18:44:19.906Z,101231.58
2019-04-22T18:46:47.768Z,101232.66
2019-04-22T18:49:29.506Z,101238.09
2019-04-22T18:52:19.942Z,101245.33
2019-04-22T18:54:56.864Z,101238.90
2019-04-22T18:57:27.354Z,101245.64
2019-04-22T18:59:50.937Z,101245.27
2019-04-22T19:02:23.170Z,101256.86
2019-04-22T19:05:06.803Z,101250.34
2019-04-22T19:07:50.015Z,101253.98
2019-04-22T19:10:35.984Z,101248.84
2019-04-22T19:13:22.274Z,101252.85
2019-04-22T19:15:38.318Z,101251.72
2019-04-22T19:18:27.054Z,101249.67
2019-04-22T19:21:07.895Z,101259.44
2019-04-22T19:23:52.140Z,101253.04
2019-04-22T19:26:44.293Z,101250.39
2019-04-22T19:32:12.989Z,101254.47
2019-04-22T19:34:52.717Z,101249.21
2019-04-22T19:37:33.098Z,101242.70
2019-04-22T19:40:18.900Z,101250.73
2019-04-22T19:42:51.781Z,101248.60
2019-04-22T19:45:19.978Z,101254.08
2019-04-22T19:48:03.429Z,101256.34
2019-04-22T19:50:27.793Z,101260.47
2019-04-22T19:53:04.880Z,101256.53
2019-04-22T19:55:39.055Z,101259.73
2019-04-22T19:58:01.664Z,101261.20
2019-04-22T20:00:42.029Z,101262.17
2019-04-22T20:03:36.372Z,101263.16
2019-04-22T20:06:02.692Z,101260.54
2019-04-22T20:08:30.689Z,101272.14
2019-04-22T20:11:07.132Z,101265.66
2019-04-22T20:13:42.772Z,101272.31
2019-04-22T20:15:58.303Z,101265.27
2019-04-22T20:18:48.430Z,101271.95
2019-04-22T20:21:18.301Z,101274.25
2019-04-22T20:23:54.887Z,101271.22
2019-04-22T20:26:33.578Z,101271.78
2019-04-22T20:29:18.354Z,101260.87
2019-04-22T20:31:54.379Z,101264.88
2019-04-22T20:34:32.086Z,101266.78
2019-04-22T20:37:10.470Z,101264.20
2019-04-22T20:39:43.584Z,101265.17
2019-04-22T20:42:23.549Z,101266.59
2019-04-22T20:44:48.408Z,101266.23
2019-04-22T20:47:16.487Z,101272.56
2019-04-22T20:49:55.782Z,101263.78
2019-04-22T20:52:33.847Z,101271.36
2019-04-22T20:54:57.244Z,101261.33
2019-04-22T20:57:34.839Z,101262.42
2019-04-22T21:00:02.094Z,101266.91
2019-04-22T21:02:31.192Z,101257.29
2019-04-22T21:04:56.782Z,101267.02
2019-04-22T21:07:31.447Z,101263.18
2019-04-22T21:10:08.735Z,101267.59
2019-04-22T21:12:34.033Z,101259.70
2019-04-22T21:15:23.867Z,101261.89
2019-04-22T21:17:45.914Z,101262.43
2019-04-22T21:20:18.614Z,101260.33
2019-04-22T21:22:55.205Z,101264.35
2019-04-22T21:25:17.906Z,101270.06
2019-04-22T21:27:56.834Z,101261.95
2019-04-22T21:30:26.289Z,101263.66
2019-04-22T21:32:59.034Z,101267.23
2019-04-22T21:35:47.285Z,101273.42
2019-04-22T21:38:08.456Z,101276.52
2019-04-22T21:40:35.075Z,101276.57
2019-04-22T21:43:12.315Z,101275.79
2019-04-22T21:45:35.312Z,101279.36
2019-04-22T21:48:20.307Z,101274.61
2019-04-22T21:50:50.267Z,101275.62
2019-04-22T21:53:22.716Z,101279.73
2019-04-22T21:55:58.546Z,101278.01
2019-04-22T21:58:24.557Z,101272.36
2019-04-22T22:01:07.644Z,101279.53
2019-04-22T22:03:38.110Z,101280.45
2019-04-22T22:06:00.216Z,101274.86
2019-04-22T22:08:42.460Z,101277.08
2019-04-22T22:11:11.326Z,101280.25
2019-04-22T22:13:39.303Z,101268.86
2019-04-22T22:16:12.789Z,101272.48
2019-04-22T22:18:41.953Z,101271.69
2019-04-22T22:21:33.425Z,101269.09
2019-04-22T22:23:54.400Z,101267.46
2019-04-22T22:26:13.542Z,101268.87
2019-04-22T22:29:01.924Z,101270.68
2019-04-22T22:31:28.583Z,101266.84
2019-04-22T22:34:04.100Z,101258.14
2019-04-22T22:36:23.719Z,101259.61
2019-04-22T22:38:55.117Z,101269.69
2019-04-22T22:41:11.958Z,101258.86
2019-04-22T22:43:47.487Z,101260.25
2019-04-22T22:46:28.353Z,101253.68
2019-04-22T22:49:10.080Z,101259.95
2019-04-22T22:51:48.619Z,101255.64
2019-04-22T22:54:12.101Z,101251.73
2019-04-22T22:56:46.988Z,101255.26
2019-04-22T22:59:18.237Z,101256.22
2019-04-22T23:01:49.750Z,101252.31
2019-04-22T23:04:28.381Z,101251.48
2019-04-22T23:06:50.324Z,101255.56
2019-04-22T23:09:19.290Z,101255.62
2019-04-22T23:12:06.683Z,101253.02
2019-04-22T23:14:29.739Z,101254.42
2019-04-22T23:16:45.570Z,101251.45
2019-04-22T23:19:09.456Z,101246.18
2019-04-22T23:21:45.507Z,101246.20
2019-04-22T23:24:29.751Z,101247.98
2019-04-22T23:27:03.125Z,101239.20
2019-04-22T23:29:39.547Z,101242.42
2019-04-22T23:32:21.208Z,101244.23
2019-04-22T23:34:58.737Z,101240.29
2019-04-22T23:37:29.158Z,101244.31
2019-04-22T23:40:13.932Z,101242.14
2019-04-22T23:42:41.054Z,101240.38
2019-04-22T23:45:09.107Z,101228.59
2019-04-22T23:47:35.618Z,101230.84
2019-04-22T23:50:14.039Z,101233.11
2019-04-22T23:52:47.933Z,101227.40
2019-04-22T23:55:20.527Z,101220.47
2019-04-22T23:57:58.435Z,101222.66
